Time;durP1;ratioP1;P1;durP2;ratioP2;P2;SDS_P1;SDS_P2;PMS_P1;PMS_P2;Temp;Humidity;BMP_temperature;BMP_pressure;BME280_temperature;BME280_humidity;BME280_pressure;Samples;Min_cycle;Max_cycle;Signal;HPM_P1;HPM_P2
2022/04/15 00:00:27;;;;;;;10.13;6.45;;;6.80;99.90;;;;;;5004748;28;20050;-73
2022/04/15 00:02:53;;;;;;;10.93;6.30;;;6.80;99.90;;;;;;5005261;28;20457;-73
2022/04/15 00:05:36;;;;;;;13.20;7.22;;;6.70;99.90;;;;;;5022630;28;20048;-73
2022/04/15 00:08:09;;;;;;;11.85;6.13;;;6.70;99.90;;;;;;5002817;28;20115;-74
2022/04/15 00:10:35;;;;;;;;;;;6.60;99.90;;;;;;5007594;28;20068;-73
2022/04/15 00:13:03;;;;;;;7.82;5.63;;;6.60;99.90;;;;;;5006011;28;19917;-73
2022/04/15 00:15:29;;;;;;;11.23;6.85;;;6.60;99.90;;;;;;5024629;28;20045;-74
2022/04/15 00:17:55;;;;;;;10.52;6.38;;;6.60;99.90;;;;;;5024470;28;20042;-72
2022/04/15 00:20:21;;;;;;;11.48;6.78;;;6.50;99.90;;;;;;5024580;28;20115;-72
2022/04/15 00:22:47;;;;;;;14.35;7.10;;;6.50;99.90;;;;;;5020684;28;20049;-73
2022/04/15 00:25:13;;;;;;;9.07;6.65;;;6.50;99.90;;;;;;5024033;28;20048;-72
2022/04/15 00:27:40;;;;;;;11.82;6.72;;;6.50;99.90;;;;;;5005004;28;20818;-73
2022/04/15 00:30:07;;;;;;;8.65;6.82;;;6.50;99.90;;;;;;5024128;28;20046;-72
2022/04/15 00:32:33;;;;;;;12.52;6.68;;;6.40;99.90;;;;;;5006131;28;20111;-72
2022/04/15 00:34:58;;;;;;;9.40;6.30;;;6.40;99.90;;;;;;5004170;28;20037;-72
2022/04/15 00:37:24;;;;;;;9.75;6.20;;;6.40;99.90;;;;;;5003554;28;20049;-72
2022/04/15 00:39:51;;;;;;;9.30;6.90;;;6.40;99.90;;;;;;5004144;28;20177;-72
2022/04/15 00:42:16;;;;;;;11.93;6.47;;;6.40;99.90;;;;;;5006449;28;20068;-72
2022/04/15 00:44:42;;;;;;;10.25;6.93;;;6.40;99.90;;;;;;5021772;28;20708;-74
2022/04/15 00:47:17;;;;;;;9.65;5.80;;;6.30;99.90;;;;;;5002943;28;20118;-72
2022/04/15 00:49:42;;;;;;;8.63;6.38;;;6.30;99.90;;;;;;5023261;28;20111;-73
2022/04/15 00:52:12;;;;;;;8.95;5.97;;;6.30;99.90;;;;;;5005429;28;20480;-73
2022/04/15 00:54:41;;;;;;;9.27;6.63;;;6.30;99.90;;;;;;5006238;28;20038;-72
2022/04/15 00:57:09;;;;;;;14.05;6.53;;;6.30;99.90;;;;;;5001975;28;20115;-73
2022/04/15 00:59:38;;;;;;;13.05;6.13;;;6.20;99.90;;;;;;5023382;28;20045;-73
2022/04/15 01:02:04;;;;;;;9.43;6.45;;;6.20;99.90;;;;;;5023200;28;21386;-73
2022/04/15 01:04:31;;;;;;;9.15;6.30;;;6.20;99.90;;;;;;5020520;28;20110;-72
2022/04/15 01:07:00;;;;;;;9.48;6.38;;;6.20;99.90;;;;;;5022324;28;20045;-72
2022/04/15 01:09:30;;;;;;;10.85;6.57;;;6.30;99.90;;;;;;5004525;28;20172;-73
2022/04/15 01:11:56;;;;;;;10.65;6.35;;;6.30;99.90;;;;;;5022701;28;20779;-73
2022/04/15 01:14:25;;;;;;;9.60;6.57;;;6.30;99.90;;;;;;5021456;28;20619;-73
2022/04/15 01:16:51;;;;;;;12.63;6.85;;;6.40;99.90;;;;;;5022469;28;20137;-73
2022/04/15 01:19:16;;;;;;;11.65;7.40;;;6.40;99.90;;;;;;5023303;28;20038;-73
2022/04/15 01:21:44;;;;;;;9.93;6.63;;;6.40;99.90;;;;;;5004368;28;20045;-74
2022/04/15 01:24:09;;;;;;;11.32;7.47;;;6.50;99.90;;;;;;5005588;28;20076;-74
2022/04/15 01:26:38;;;;;;;10.48;7.53;;;6.50;99.90;;;;;;5022613;28;20756;-72
2022/04/15 01:29:04;;;;;;;10.75;7.20;;;6.50;99.90;;;;;;5021357;28;20053;-73
2022/04/15 01:31:31;;;;;;;11.40;6.80;;;6.60;99.90;;;;;;5023803;28;20079;-73
2022/04/15 01:33:59;;;;;;;9.05;6.53;;;6.60;99.90;;;;;;5000898;28;20034;-73
2022/04/15 01:36:25;;;;;;;9.20;6.35;;;6.60;99.90;;;;;;5002158;28;20123;-73
2022/04/15 01:38:51;;;;;;;9.20;6.30;;;6.70;99.90;;;;;;5005159;28;20045;-73
2022/04/15 01:41:16;;;;;;;8.93;6.40;;;6.70;99.90;;;;;;5020156;28;20049;-73
2022/04/15 01:43:42;;;;;;;8.38;6.63;;;6.70;99.90;;;;;;5022492;28;20590;-73
2022/04/15 01:46:07;;;;;;;8.20;6.18;;;6.70;99.90;;;;;;5007145;28;20057;-72
2022/04/15 01:48:33;;;;;;;9.70;6.03;;;6.80;99.90;;;;;;5002708;28;20972;-73
2022/04/15 01:50:58;;;;;;;8.57;5.80;;;6.80;99.90;;;;;;5006974;28;20041;-73
2022/04/15 01:53:24;;;;;;;9.32;6.63;;;6.80;99.90;;;;;;5020927;28;20045;-73
2022/04/15 01:55:50;;;;;;;9.00;5.60;;;6.90;99.90;;;;;;5023211;28;20109;-72
2022/04/15 01:58:16;;;;;;;8.77;6.03;;;6.90;99.90;;;;;;5006069;28;20813;-72
2022/04/15 02:00:42;;;;;;;11.57;6.35;;;6.90;99.90;;;;;;5003585;28;20103;-73
2022/04/15 02:03:07;;;;;;;8.73;6.10;;;7.00;99.90;;;;;;5022948;28;20041;-73
2022/04/15 02:05:33;;;;;;;11.88;6.45;;;7.00;99.90;;;;;;5022606;28;20404;-72
2022/04/15 02:07:59;;;;;;;9.10;6.50;;;7.00;99.90;;;;;;5002131;28;20041;-73
2022/04/15 02:10:24;;;;;;;10.38;6.18;;;7.00;99.90;;;;;;5004054;28;20106;-73
2022/04/15 02:12:50;;;;;;;9.23;5.93;;;7.10;99.90;;;;;;5002106;28;20099;-73
2022/04/15 02:15:15;;;;;;;11.38;6.68;;;7.20;99.90;;;;;;5001601;28;20046;-73
2022/04/15 02:17:41;;;;;;;11.90;6.72;;;7.30;99.90;;;;;;5002258;28;20049;-73
2022/04/15 02:20:11;;;;;;;8.23;5.95;;;7.30;99.90;;;;;;5022814;28;20056;-72
2022/04/15 02:22:37;;;;;;;7.22;5.60;;;7.30;99.90;;;;;;5000437;28;20128;-72
2022/04/15 02:25:03;;;;;;;8.73;5.00;;;7.40;99.90;;;;;;5000434;28;20517;-74
2022/04/15 02:27:29;;;;;;;11.30;5.05;;;7.40;99.90;;;;;;5020115;28;20053;-73
2022/04/15 02:29:55;;;;;;;6.72;3.10;;;7.50;99.90;;;;;;5019631;28;20119;-74
2022/04/15 02:32:20;;;;;;;7.60;3.00;;;7.60;99.90;;;;;;5004274;28;20132;-74
2022/04/15 02:34:46;;;;;;;7.95;3.70;;;7.60;99.90;;;;;;5000544;28;20038;-73
2022/04/15 02:37:12;;;;;;;9.82;4.10;;;7.70;99.90;;;;;;4999594;28;20050;-72
2022/04/15 02:39:37;;;;;;;6.45;3.90;;;7.70;99.90;;;;;;5023315;28;20424;-73
2022/04/15 02:42:03;;;;;;;11.68;4.55;;;7.80;99.90;;;;;;5001166;28;20505;-73
2022/04/15 02:44:30;;;;;;;9.60;4.80;;;7.80;99.90;;;;;;5003618;28;20112;-72
2022/04/15 02:46:58;;;;;;;9.43;4.25;;;7.80;99.90;;;;;;5003222;28;20037;-73
2022/04/15 02:49:27;;;;;;;7.55;3.92;;;7.90;99.90;;;;;;5017474;28;20089;-72
2022/04/15 02:51:54;;;;;;;11.63;4.63;;;7.90;99.90;;;;;;5000880;28;20061;-72
2022/04/15 02:54:19;;;;;;;8.50;4.50;;;7.90;99.90;;;;;;5002666;28;20072;-72
2022/04/15 02:56:45;;;;;;;9.77;4.35;;;7.90;99.90;;;;;;5002260;28;20485;-72
2022/04/15 02:59:10;;;;;;;7.90;4.43;;;7.90;99.90;;;;;;5002170;28;20049;-72
2022/04/15 03:01:36;;;;;;;10.70;5.07;;;8.00;99.90;;;;;;5019438;28;20523;-72
2022/04/15 03:04:02;;;;;;;10.23;4.72;;;8.00;99.90;;;;;;5019569;28;20045;-72
2022/04/15 03:06:27;;;;;;;9.80;4.40;;;8.00;99.90;;;;;;5019779;28;20049;-73
2022/04/15 03:08:55;;;;;;;8.63;4.43;;;8.00;99.90;;;;;;5002655;28;20513;-72
2022/04/15 03:11:20;;;;;;;12.88;5.03;;;8.10;99.90;;;;;;5003413;28;20047;-72
2022/04/15 03:13:46;;;;;;;11.30;4.57;;;8.10;99.90;;;;;;5019313;28;20049;-72
2022/04/15 03:16:11;;;;;;;9.68;4.63;;;8.10;99.90;;;;;;5016056;28;20135;-72
2022/04/15 03:18:37;;;;;;;7.47;4.07;;;8.10;99.90;;;;;;5021584;28;20116;-72
2022/04/15 03:21:03;;;;;;;11.90;5.55;;;8.10;99.90;;;;;;4999009;28;20150;-72
2022/04/15 03:23:29;;;;;;;14.65;4.38;;;8.10;99.90;;;;;;5020501;28;20390;-72
2022/04/15 03:25:55;;;;;;;6.78;4.32;;;8.10;99.90;;;;;;5019315;28;20072;-72
2022/04/15 03:28:20;;;;;;;9.38;4.13;;;8.10;99.90;;;;;;5019280;28;21236;-72
2022/04/15 03:30:46;;;;;;;10.05;5.10;;;8.10;99.90;;;;;;5002070;28;20194;-72
2022/04/15 03:33:12;;;;;;;8.88;3.97;;;8.10;99.90;;;;;;5002762;28;20041;-73
2022/04/15 03:35:37;;;;;;;7.85;4.38;;;8.10;99.90;;;;;;4999547;28;20069;-72
2022/04/15 03:38:03;;;;;;;9.00;4.00;;;8.10;99.90;;;;;;5021661;28;20128;-72
2022/04/15 03:40:29;;;;;;;9.13;4.10;;;8.10;99.90;;;;;;5002179;28;20056;-72
2022/04/15 03:42:56;;;;;;;17.45;5.60;;;8.10;99.90;;;;;;5020449;28;20046;-72
2022/04/15 03:45:22;;;;;;;9.55;3.10;;;8.10;99.90;;;;;;5000013;28;20045;-72
2022/04/15 03:47:54;;;;;;;8.57;3.00;;;8.10;99.90;;;;;;5019573;28;20076;-72
2022/04/15 03:50:21;;;;;;;4.20;2.67;;;8.10;99.90;;;;;;5021421;28;20049;-72
2022/04/15 03:52:47;;;;;;;6.32;2.40;;;8.10;99.90;;;;;;5020029;28;20050;-73
2022/04/15 03:55:15;;;;;;;8.02;3.10;;;8.10;99.90;;;;;;5003032;28;20060;-72
2022/04/15 03:57:41;;;;;;;5.38;2.83;;;8.10;99.90;;;;;;5001713;28;20045;-72
2022/04/15 04:00:10;;;;;;;5.13;2.83;;;8.10;99.90;;;;;;5000756;28;20037;-71
2022/04/15 04:02:36;;;;;;;6.38;2.83;;;8.10;99.90;;;;;;4998770;28;20081;-72
2022/04/15 04:05:02;;;;;;;5.32;2.80;;;8.10;99.90;;;;;;5001994;28;20208;-72
2022/04/15 04:07:28;;;;;;;6.95;2.83;;;8.10;99.90;;;;;;5020038;28;20068;-72
2022/04/15 04:09:54;;;;;;;4.93;3.00;;;8.10;99.90;;;;;;5003899;28;20048;-72
2022/04/15 04:12:19;;;;;;;5.93;2.95;;;8.10;99.90;;;;;;5020881;28;20156;-72
2022/04/15 04:14:45;;;;;;;6.53;2.95;;;8.10;99.90;;;;;;5016425;28;20136;-73
2022/04/15 04:17:11;;;;;;;6.40;3.92;;;8.10;99.90;;;;;;5017514;28;20053;-72
2022/04/15 04:19:36;;;;;;;7.93;3.72;;;8.20;99.90;;;;;;5018152;28;20184;-73
2022/04/15 04:22:03;;;;;;;10.82;4.38;;;8.10;99.90;;;;;;5003236;28;20605;-72
2022/04/15 04:24:28;;;;;;;9.02;4.97;;;8.20;99.90;;;;;;5000308;28;20045;-73
2022/04/15 04:26:54;;;;;;;11.18;5.82;;;8.20;99.90;;;;;;5002911;28;20050;-72
2022/04/15 04:29:19;;;;;;;5.53;3.35;;;8.20;99.90;;;;;;5002855;28;20416;-73
2022/04/15 04:31:45;;;;;;;4.97;3.03;;;8.20;99.90;;;;;;5001936;28;20401;-73
2022/04/15 04:34:10;;;;;;;6.65;3.10;;;8.20;99.90;;;;;;5018535;28;20132;-72
2022/04/15 04:36:36;;;;;;;5.97;2.78;;;8.20;99.90;;;;;;5018942;28;20560;-73
2022/04/15 04:39:03;;;;;;;6.90;3.50;;;8.10;99.90;;;;;;5001359;28;20056;-73
2022/04/15 04:41:29;;;;;;;7.70;3.63;;;8.10;99.90;;;;;;5003700;28;20054;-73
2022/04/15 04:43:55;;;;;;;5.47;4.07;;;8.10;99.90;;;;;;5005018;28;20056;-72
2022/04/15 04:46:21;;;;;;;6.22;3.90;;;8.20;99.90;;;;;;5020728;28;20070;-73
2022/04/15 04:48:46;;;;;;;6.72;4.28;;;8.20;99.90;;;;;;5002971;28;20480;-72
2022/04/15 04:51:12;;;;;;;11.27;6.70;;;8.20;99.90;;;;;;5004842;28;20048;-72
2022/04/15 04:53:38;;;;;;;13.55;8.15;;;8.20;99.90;;;;;;5023279;28;20069;-72
2022/04/15 04:56:04;;;;;;;16.92;10.25;;;8.20;99.90;;;;;;5004645;28;20033;-72
2022/04/15 04:58:29;;;;;;;20.50;12.73;;;8.20;99.90;;;;;;5007362;28;20046;-72
2022/04/15 05:00:55;;;;;;;21.88;12.10;;;8.20;99.90;;;;;;5021590;28;20662;-72
2022/04/15 05:03:20;;;;;;;21.42;12.65;;;8.20;99.90;;;;;;5000638;28;20471;-74
2022/04/15 05:05:46;;;;;;;15.10;9.65;;;8.20;99.90;;;;;;5000673;28;20056;-73
2022/04/15 05:08:12;;;;;;;12.82;8.70;;;8.10;99.90;;;;;;5002519;28;20042;-74
2022/04/15 05:10:37;;;;;;;15.27;8.32;;;8.10;99.90;;;;;;5004227;28;20041;-73
2022/04/15 05:13:03;;;;;;;11.90;7.82;;;8.10;99.90;;;;;;5022595;28;20050;-73
2022/04/15 05:15:28;;;;;;;14.23;7.40;;;8.10;99.90;;;;;;5006148;28;20045;-74
2022/04/15 05:17:54;;;;;;;12.55;8.07;;;8.10;99.90;;;;;;5005275;28;20091;-73
2022/04/15 05:20:20;;;;;;;11.52;6.55;;;8.00;99.90;;;;;;5020799;28;20050;-73
2022/04/15 05:22:45;;;;;;;11.45;6.70;;;8.10;99.90;;;;;;5005087;28;20053;-73
2022/04/15 05:25:11;;;;;;;9.98;6.63;;;8.00;99.90;;;;;;5008171;28;20107;-73
2022/04/15 05:27:37;;;;;;;11.85;6.65;;;8.00;99.90;;;;;;5004417;28;20064;-73
2022/04/15 05:30:04;;;;;;;10.23;6.78;;;8.00;99.90;;;;;;5004212;28;20045;-72
2022/04/15 05:32:30;;;;;;;9.73;7.18;;;8.00;99.90;;;;;;5004767;28;20049;-73
2022/04/15 05:34:55;;;;;;;9.85;6.53;;;8.00;99.90;;;;;;5005703;28;20793;-71
2022/04/15 05:37:21;;;;;;;9.48;6.63;;;8.00;99.90;;;;;;5022018;28;20479;-73
2022/04/15 05:39:46;;;;;;;9.98;6.97;;;8.00;99.90;;;;;;5004052;28;20134;-72
2022/04/15 05:42:12;;;;;;;10.80;5.57;;;8.00;99.90;;;;;;5000178;28;20555;-72
2022/04/15 05:44:41;;;;;;;6.88;4.63;;;8.00;99.90;;;;;;5003195;28;20049;-72
2022/04/15 05:47:07;;;;;;;7.88;6.32;;;8.00;99.90;;;;;;5022749;28;20244;-72
2022/04/15 05:49:34;;;;;;;6.07;4.60;;;8.00;99.90;;;;;;5020461;28;20138;-73
2022/04/15 05:52:01;;;;;;;7.05;4.70;;;8.00;99.90;;;;;;5006592;28;20120;-72
2022/04/15 05:54:26;;;;;;;6.03;4.55;;;8.00;99.90;;;;;;5002118;28;20133;-72
2022/04/15 05:56:52;;;;;;;5.68;3.90;;;8.00;99.90;;;;;;5020752;28;20300;-72
2022/04/15 05:59:20;;;;;;;8.13;4.43;;;8.00;99.90;;;;;;5001819;28;20091;-72
2022/04/15 06:01:47;;;;;;;9.15;4.88;;;8.00;99.90;;;;;;5005997;28;20069;-74
2022/04/15 06:04:13;;;;;;;8.88;4.80;;;8.00;99.90;;;;;;5017089;28;20060;-72
2022/04/15 06:06:39;;;;;;;7.18;4.50;;;8.10;99.90;;;;;;5002111;28;20037;-72
2022/04/15 06:09:05;;;;;;;8.27;4.53;;;8.10;99.90;;;;;;5004212;28;20116;-72
2022/04/15 06:11:30;;;;;;;5.03;3.80;;;8.10;99.90;;;;;;5022767;28;20184;-72
2022/04/15 06:13:57;;;;;;;7.68;3.80;;;8.10;99.90;;;;;;5021729;28;20046;-72
2022/04/15 06:16:26;;;;;;;5.88;3.90;;;8.10;99.90;;;;;;5019616;28;20489;-72
2022/04/15 06:18:51;;;;;;;4.28;3.58;;;8.20;99.90;;;;;;5002178;28;20084;-72
2022/04/15 06:21:17;;;;;;;5.55;3.97;;;8.20;99.90;;;;;;5003509;28;20183;-73
2022/04/15 06:23:42;;;;;;;6.10;3.60;;;8.20;99.90;;;;;;5023560;28;20524;-72
2022/04/15 06:26:08;;;;;;;6.65;3.67;;;8.30;99.90;;;;;;4987445;28;20042;-72
2022/04/15 06:28:34;;;;;;;4.47;2.92;;;8.30;99.90;;;;;;5007370;28;20041;-73
2022/04/15 06:30:59;;;;;;;6.78;2.80;;;8.30;99.90;;;;;;5021844;28;20034;-71
2022/04/15 06:33:25;;;;;;;6.18;3.00;;;8.30;99.90;;;;;;5018801;28;20046;-71
2022/04/15 06:35:52;;;;;;;4.45;2.17;;;8.40;99.90;;;;;;5023224;28;20073;-71
2022/04/15 06:38:18;;;;;;;4.35;2.97;;;8.40;99.90;;;;;;5001456;28;20534;-71
2022/04/15 06:40:44;;;;;;;4.97;3.03;;;8.40;99.90;;;;;;5018733;28;20053;-71
2022/04/15 06:43:10;;;;;;;3.97;2.30;;;8.50;99.90;;;;;;5003784;28;20052;-72
2022/04/15 06:45:36;;;;;;;4.07;2.45;;;8.40;99.90;;;;;;5021282;28;20534;-71
2022/04/15 06:48:02;;;;;;;3.22;2.53;;;8.40;99.90;;;;;;5019973;28;20057;-72
2022/04/15 06:50:28;;;;;;;5.97;3.78;;;8.30;99.90;;;;;;5002618;28;20060;-72
2022/04/15 06:52:53;;;;;;;9.25;4.07;;;8.20;99.90;;;;;;5021152;28;20484;-71
2022/04/15 06:55:19;;;;;;;6.38;4.18;;;8.20;99.90;;;;;;4999118;28;20125;-71
2022/04/15 06:57:45;;;;;;;7.05;4.45;;;8.20;99.90;;;;;;5021069;28;20057;-72
2022/04/15 07:00:12;;;;;;;9.15;5.03;;;8.20;99.90;;;;;;5002159;28;20049;-71
2022/04/15 07:02:38;;;;;;;7.00;5.00;;;8.20;99.90;;;;;;5022010;28;20037;-71
2022/04/15 07:05:09;;;;;;;6.78;4.82;;;8.10;99.90;;;;;;5018057;28;20534;-71
2022/04/15 07:07:38;;;;;;;9.02;5.80;;;8.10;99.90;;;;;;5016967;28;20425;-72
2022/04/15 07:10:05;;;;;;;8.35;5.45;;;8.10;99.90;;;;;;5003465;28;20049;-71
2022/04/15 07:12:31;;;;;;;14.70;6.47;;;8.20;99.90;;;;;;5024411;28;20037;-72
2022/04/15 07:14:57;;;;;;;14.27;7.18;;;8.10;99.90;;;;;;5001960;28;20053;-71
2022/04/15 07:17:24;;;;;;;10.82;6.22;;;8.20;99.90;;;;;;5018510;28;20037;-71
2022/04/15 07:19:49;;;;;;;11.55;6.75;;;8.20;99.90;;;;;;5022663;28;20091;-72
2022/04/15 07:22:19;;;;;;;10.82;6.65;;;8.20;99.90;;;;;;5022593;28;20129;-70
2022/04/15 07:24:46;;;;;;;11.82;7.80;;;8.20;99.90;;;;;;5019204;28;20054;-71
2022/04/15 07:27:12;;;;;;;13.35;8.40;;;8.20;99.90;;;;;;5021612;28;20045;-71
2022/04/15 07:29:37;;;;;;;15.48;9.88;;;8.30;99.90;;;;;;5023070;28;20516;-71
2022/04/15 07:32:04;;;;;;;15.98;10.00;;;8.30;99.90;;;;;;4999759;28;20054;-72
2022/04/15 07:34:29;;;;;;;16.02;10.57;;;8.30;99.90;;;;;;5003508;28;20048;-71
2022/04/15 07:36:55;;;;;;;17.52;9.65;;;8.30;99.90;;;;;;5004611;28;20050;-72
2022/04/15 07:39:22;;;;;;;15.23;9.15;;;8.30;99.90;;;;;;5021312;28;20046;-72
2022/04/15 07:41:48;;;;;;;16.17;10.52;;;8.40;99.90;;;;;;5024143;28;20569;-71
2022/04/15 07:44:14;;;;;;;14.93;9.13;;;8.40;99.90;;;;;;5006561;28;20545;-71
2022/04/15 07:46:41;;;;;;;14.98;10.20;;;8.40;99.90;;;;;;5006846;28;20045;-71
2022/04/15 07:49:07;;;;;;;20.95;9.77;;;8.40;99.90;;;;;;5019426;28;20037;-72
2022/04/15 07:51:34;;;;;;;15.20;9.45;;;8.40;99.90;;;;;;5022682;28;20111;-72
2022/04/15 07:53:59;;;;;;;14.65;9.65;;;8.50;99.90;;;;;;5007804;28;20045;-72
2022/04/15 07:56:25;;;;;;;15.00;10.20;;;8.60;99.90;;;;;;5009645;28;20044;-71
2022/04/15 07:58:51;;;;;;;14.35;8.30;;;8.80;99.90;;;;;;5025012;28;20046;-72
2022/04/15 08:01:17;;;;;;;15.93;10.45;;;8.90;99.90;;;;;;4989620;28;20054;-71
2022/04/15 08:04:10;;;;;;;15.35;9.32;;;8.90;99.90;;;;;;5024406;28;20183;-70
2022/04/15 08:07:15;;;;;;;15.40;9.90;;;8.90;99.90;;;;;;5000207;28;20141;-71
2022/04/15 08:09:40;;;;;;;14.07;9.35;;;9.00;99.90;;;;;;5009224;28;20128;-72
2022/04/15 08:12:09;;;;;;;11.63;8.13;;;9.00;99.90;;;;;;5023658;28;20568;-71
2022/04/15 08:14:34;;;;;;;15.57;8.90;;;9.00;99.90;;;;;;5005477;28;20128;-70
2022/04/15 08:17:00;;;;;;;14.73;8.70;;;9.10;99.90;;;;;;5028732;28;20132;-71
2022/04/15 08:19:26;;;;;;;17.85;8.88;;;9.30;99.90;;;;;;5006890;28;20095;-70
2022/04/15 08:21:52;;;;;;;12.48;8.43;;;9.50;99.90;;;;;;5004262;28;20045;-71
2022/04/15 08:24:19;;;;;;;15.10;8.82;;;9.80;99.90;;;;;;5018708;28;20053;-71
2022/04/15 08:26:45;;;;;;;16.48;8.88;;;10.10;99.90;;;;;;5002742;28;20049;-71
2022/04/15 08:29:11;;;;;;;19.40;9.10;;;10.40;99.90;;;;;;5001508;28;20093;-72
2022/04/15 08:31:37;;;;;;;15.70;8.82;;;10.40;99.90;;;;;;5019399;28;20477;-71
2022/04/15 08:34:02;;;;;;;15.02;7.90;;;10.50;99.90;;;;;;5005706;28;20042;-71
2022/04/15 08:36:28;;;;;;;14.20;8.73;;;10.40;99.90;;;;;;5001170;28;20098;-71
2022/04/15 08:38:54;;;;;;;14.30;7.40;;;10.40;99.90;;;;;;5021390;28;20050;-71
2022/04/15 08:41:21;;;;;;;10.43;6.63;;;10.40;99.90;;;;;;5001669;28;20057;-71
2022/04/15 08:43:47;;;;;;;13.57;6.60;;;10.30;99.90;;;;;;5020312;28;20823;-71
2022/04/15 08:46:13;;;;;;;12.35;6.75;;;10.30;99.90;;;;;;5020189;28;20049;-71
2022/04/15 08:48:39;;;;;;;11.23;6.45;;;10.20;99.90;;;;;;5020152;28;20044;-73
2022/04/15 08:51:06;;;;;;;11.80;7.28;;;10.10;99.90;;;;;;5005831;28;20119;-72
2022/04/15 08:53:32;;;;;;;9.90;6.07;;;10.10;99.90;;;;;;5007275;28;20050;-73
2022/04/15 08:55:58;;;;;;;10.68;6.20;;;10.10;99.90;;;;;;5005577;28;20132;-73
2022/04/15 08:58:27;;;;;;;12.48;6.75;;;10.10;99.90;;;;;;5006641;28;20149;-72
2022/04/15 09:00:53;;;;;;;10.07;6.57;;;10.10;99.90;;;;;;5026602;28;20444;-73
2022/04/15 09:03:19;;;;;;;11.95;5.82;;;10.10;99.90;;;;;;5004821;28;20184;-72
2022/04/15 09:05:49;;;;;;;11.35;5.63;;;10.20;99.90;;;;;;5006300;28;20113;-74
2022/04/15 09:08:15;;;;;;;13.38;5.32;;;10.20;99.90;;;;;;5025928;28;20460;-73
2022/04/15 09:10:42;;;;;;;7.35;4.80;;;10.30;99.90;;;;;;5007808;28;20152;-71
2022/04/15 09:13:20;;;;;;;8.90;4.88;;;10.30;99.90;;;;;;5021472;28;20042;-72
2022/04/15 09:15:45;;;;;;;11.88;6.05;;;10.30;99.90;;;;;;5024836;28;20654;-71
2022/04/15 09:18:30;;;;;;;7.93;5.07;;;10.40;99.90;;;;;;5023528;28;20060;-72
2022/04/15 09:21:18;;;;;;;11.07;5.00;;;10.50;99.90;;;;;;5002953;28;20045;-72
2022/04/15 09:23:46;;;;;;;9.23;4.63;;;10.70;99.90;;;;;;5006902;28;20618;-72
2022/04/15 09:26:11;;;;;;;7.07;3.60;;;11.00;99.90;;;;;;5008902;28;20044;-72
2022/04/15 09:28:37;;;;;;;9.90;4.43;;;11.30;99.90;;;;;;5026221;28;20405;-71
2022/04/15 09:31:03;;;;;;;9.13;4.97;;;11.60;99.90;;;;;;5029058;28;20049;-70
2022/04/15 09:33:29;;;;;;;8.52;4.65;;;12.00;99.90;;;;;;5028186;28;20080;-72
2022/04/15 09:35:55;;;;;;;7.90;4.32;;;12.10;99.90;;;;;;5003416;28;20385;-72
2022/04/15 09:38:40;;;;;;;12.15;5.65;;;11.90;99.90;;;;;;5010409;28;20053;-72
2022/04/15 09:41:22;;;;;;;13.80;5.10;;;11.70;99.90;;;;;;5005230;28;20086;-72
2022/04/15 09:43:53;;;;;;;9.23;5.00;;;11.50;99.90;;;;;;5002456;28;20422;-72
2022/04/15 09:46:20;;;;;;;6.70;4.05;;;11.40;99.90;;;;;;5004256;28;20034;-72
2022/04/15 09:49:06;;;;;;;6.40;3.50;;;11.40;99.90;;;;;;5006205;28;20214;-72
2022/04/15 09:51:44;;;;;;;8.40;3.97;;;11.50;99.90;;;;;;5008016;28;20088;-72
2022/04/15 09:54:27;;;;;;;8.07;4.13;;;11.50;99.90;;;;;;5005938;28;20046;-72
2022/04/15 09:56:58;;;;;;;6.15;3.17;;;11.40;99.90;;;;;;5007000;28;20077;-71
2022/04/15 09:59:25;;;;;;;8.63;3.53;;;11.50;99.90;;;;;;5000901;28;20055;-72
2022/04/15 10:01:54;;;;;;;5.40;3.10;;;11.50;99.90;;;;;;5007931;28;20042;-72
2022/04/15 10:04:22;;;;;;;6.35;3.47;;;11.40;99.90;;;;;;5006207;28;20546;-72
2022/04/15 10:06:48;;;;;;;5.18;3.00;;;11.50;99.90;;;;;;5005153;28;20493;-71
2022/04/15 10:09:14;;;;;;;5.28;3.28;;;11.60;99.90;;;;;;5007529;28;20077;-72
2022/04/15 10:11:43;;;;;;;5.03;3.22;;;11.60;99.90;;;;;;5006605;28;20038;-70
2022/04/15 10:14:13;;;;;;;11.40;4.20;;;11.60;99.90;;;;;;5003399;28;20490;-71
2022/04/15 10:16:39;;;;;;;4.40;3.03;;;11.70;99.90;;;;;;5006519;28;20065;-71
2022/04/15 10:19:06;;;;;;;5.47;3.17;;;11.60;99.90;;;;;;5006603;28;20049;-71
2022/04/15 10:21:34;;;;;;;7.18;3.53;;;11.80;99.90;;;;;;5002119;28;20052;-71
2022/04/15 10:24:01;;;;;;;10.05;4.72;;;11.80;99.90;;;;;;4999304;28;20057;-73
2022/04/15 10:26:34;;;;;;;6.47;4.32;;;12.00;99.90;;;;;;5004557;28;20041;-71
2022/04/15 10:29:02;;;;;;;;;;;12.10;99.90;;;;;;5002912;28;20053;-73
2022/04/15 10:31:45;;;;;;;4.65;3.60;;;12.10;99.90;;;;;;5006625;28;19925;-72
2022/04/15 10:34:16;;;;;;;6.95;3.60;;;12.10;99.90;;;;;;5000908;28;20050;-71
2022/04/15 10:36:54;;;;;;;8.30;3.33;;;12.10;99.90;;;;;;5003892;28;20057;-71
2022/04/15 10:39:24;;;;;;;7.63;3.17;;;12.10;99.90;;;;;;4998927;28;20061;-71
2022/04/15 10:41:58;;;;;;;6.05;4.15;;;12.10;99.90;;;;;;5021519;28;20045;-72
2022/04/15 10:44:35;;;;;;;8.55;4.40;;;12.10;99.90;;;;;;5025063;28;20421;-72
2022/04/15 10:47:04;;;;;;;7.20;4.22;;;12.30;99.90;;;;;;5023447;28;20052;-73
2022/04/15 10:49:33;;;;;;;7.88;3.88;;;12.40;99.90;;;;;;5005335;28;20048;-72
2022/04/15 10:52:21;;;;;;;9.38;4.40;;;12.40;99.90;;;;;;5019418;28;20053;-71
2022/04/15 10:54:51;;;;;;;7.78;3.83;;;12.30;99.90;;;;;;4987109;28;20054;-72
2022/04/15 10:57:21;;;;;;;8.93;4.50;;;12.30;99.90;;;;;;5004886;28;20052;-71
2022/04/15 11:02:39;;;;;;;7.10;4.32;;;12.60;99.90;;;;;;5002245;28;20045;-72
2022/04/15 11:05:06;;;;;;;7.03;4.40;;;12.80;99.90;;;;;;5002003;28;20077;-72
2022/04/15 11:07:44;;;;;;;9.02;4.53;;;12.90;99.90;;;;;;5019704;28;20038;-72
2022/04/15 11:10:17;;;;;;;9.15;4.93;;;13.00;99.90;;;;;;5006111;28;20045;-72
2022/04/15 11:12:45;;;;;;;8.75;5.15;;;12.90;99.90;;;;;;5021731;28;20624;-72
2022/04/15 11:15:11;;;;;;;10.50;4.75;;;12.90;99.90;;;;;;5003181;28;20053;-71
2022/04/15 11:17:47;;;;;;;9.60;5.28;;;12.80;99.90;;;;;;5005258;28;20045;-72
2022/04/15 11:20:13;;;;;;;9.13;4.63;;;12.80;99.90;;;;;;5006825;28;20049;-71
2022/04/15 11:22:44;;;;;;;8.05;4.43;;;12.80;99.90;;;;;;5006566;28;20045;-72
2022/04/15 11:25:13;;;;;;;8.50;4.63;;;12.90;99.90;;;;;;5006783;28;20438;-71
2022/04/15 11:27:40;;;;;;;8.20;4.55;;;13.00;99.90;;;;;;5002875;28;20583;-71
2022/04/15 11:30:17;;;;;;;7.30;4.05;;;13.10;99.90;;;;;;5021419;28;20058;-72
2022/04/15 11:32:54;;;;;;;7.45;4.57;;;13.10;99.90;;;;;;5016289;28;20220;-72
2022/04/15 11:35:35;;;;;;;6.97;4.30;;;13.10;99.90;;;;;;5018066;28;20064;-72
2022/04/15 11:38:07;;;;;;;8.77;5.18;;;13.10;99.90;;;;;;5020017;28;20051;-71
2022/04/15 11:40:36;;;;;;;8.60;4.80;;;13.00;99.90;;;;;;5018286;28;20063;-73
2022/04/15 11:43:11;;;;;;;9.15;4.80;;;13.00;99.90;;;;;;5000012;28;20061;-72
2022/04/15 11:45:39;;;;;;;8.85;4.75;;;12.90;99.90;;;;;;5001354;28;20049;-71
2022/04/15 11:48:25;;;;;;;9.68;5.22;;;12.80;99.90;;;;;;5004974;28;20052;-72
2022/04/15 11:50:53;;;;;;;11.63;5.82;;;12.80;99.90;;;;;;5002883;28;20058;-72
2022/04/15 11:53:20;;;;;;;11.23;6.18;;;12.80;99.90;;;;;;5005661;28;20048;-73
2022/04/15 11:55:51;;;;;;;11.73;6.57;;;12.90;99.90;;;;;;5009825;28;20205;-72
2022/04/15 11:58:17;;;;;;;9.02;5.38;;;12.90;99.90;;;;;;5027462;28;20049;-72
2022/04/15 12:00:49;;;;;;;9.38;5.78;;;12.90;99.90;;;;;;5009645;28;20052;-72
2022/04/15 12:03:15;;;;;;;8.65;5.57;;;12.90;99.90;;;;;;5010608;28;20425;-72
2022/04/15 12:05:40;;;;;;;9.40;5.10;;;12.90;99.90;;;;;;5010466;28;20079;-72
2022/04/15 12:08:08;;;;;;;11.23;6.25;;;12.90;99.90;;;;;;5011657;28;20053;-72
2022/04/15 12:10:38;;;;;;;10.02;4.93;;;13.00;99.90;;;;;;5009839;28;20049;-72
2022/04/15 12:13:07;;;;;;;9.88;5.85;;;12.90;99.90;;;;;;5008045;28;20080;-69
2022/04/15 12:15:36;;;;;;;9.77;5.00;;;12.90;99.90;;;;;;5008681;28;20049;-71
2022/04/15 12:18:04;;;;;;;10.82;5.45;;;12.90;99.90;;;;;;5005208;28;20049;-70
2022/04/15 12:20:31;;;;;;;7.50;4.18;;;12.90;99.90;;;;;;5007639;28;20049;-70
2022/04/15 12:22:58;;;;;;;11.30;5.25;;;12.90;99.90;;;;;;5006337;28;20076;-70
2022/04/15 12:25:24;;;;;;;14.13;5.63;;;13.00;99.90;;;;;;5007580;28;20060;-70
2022/04/15 12:27:50;;;;;;;7.85;5.40;;;13.00;99.90;;;;;;5024508;28;20415;-69
2022/04/15 12:30:39;;;;;;;9.52;4.90;;;12.90;99.90;;;;;;5019891;28;20185;-69
2022/04/15 12:33:10;;;;;;;15.02;6.45;;;13.00;99.90;;;;;;5022528;28;20040;-71
2022/04/15 12:35:37;;;;;;;8.93;5.82;;;13.00;99.90;;;;;;5004792;28;20284;-71
2022/04/15 12:38:03;;;;;;;9.88;5.72;;;12.90;99.90;;;;;;5002945;28;20152;-69
2022/04/15 12:40:30;;;;;;;12.98;5.03;;;12.90;99.90;;;;;;5006905;28;20184;-71
2022/04/15 12:43:10;;;;;;;14.55;5.72;;;12.90;99.90;;;;;;5024154;28;20135;-70
2022/04/15 12:45:50;;;;;;;11.00;4.95;;;12.90;99.90;;;;;;5008162;28;20045;-71
2022/04/15 12:48:16;;;;;;;10.38;5.32;;;12.90;99.90;;;;;;5005633;28;20098;-71
2022/04/15 12:50:46;;;;;;;8.52;4.80;;;12.90;99.90;;;;;;5007073;28;20062;-70
2022/04/15 12:53:22;;;;;;;9.75;4.80;;;12.90;99.90;;;;;;5021041;28;20056;-70
2022/04/15 12:55:49;;;;;;;10.52;5.22;;;12.90;99.90;;;;;;5024080;28;20400;-70